sensor_id;sensor_type;location;lat;lon;timestamp;pressure;altitude;pressure_sealevel;temperature;humidity
2339;BME280;1180;51.438;6.978;2022-09-28T00:01:17;98276.75;;;12.47;94.59
2339;BME280;1180;51.438;6.978;2022-09-28T00:03:44;98278.84;;;12.51;94.14
2339;BME280;1180;51.438;6.978;2022-09-28T00:06:11;98279.31;;;12.47;93.49
2339;BME280;1180;51.438;6.978;2022-09-28T00:08:37;98277.72;;;12.46;94.04
2339;BME280;1180;51.438;6.978;2022-09-28T00:11:04;98272.84;;;12.42;93.83
2339;BME280;1180;51.438;6.978;2022-09-28T00:13:30;98269.16;;;12.45;93.56
2339;BME280;1180;51.438;6.978;2022-09-28T00:16:09;98271.22;;;12.41;93.75
2339;BME280;1180;51.438;6.978;2022-09-28T00:18:35;98267.88;;;12.41;93.99
2339;BME280;1180;51.438;6.978;2022-09-28T00:21:27;98259.53;;;12.47;93.14
2339;BME280;1180;51.438;6.978;2022-09-28T00:23:57;98259.84;;;12.44;92.84
2339;BME280;1180;51.438;6.978;2022-09-28T00:26:52;98263.38;;;12.43;93.04
2339;BME280;1180;51.438;6.978;2022-09-28T00:31:51;98256.28;;;12.37;93.02
2339;BME280;1180;51.438;6.978;2022-09-28T00:34:17;98254.66;;;12.36;93.17
2339;BME280;1180;51.438;6.978;2022-09-28T00:36:44;98254.59;;;12.27;93.67
2339;BME280;1180;51.438;6.978;2022-09-28T00:39:11;98256.34;;;12.27;93.93
2339;BME280;1180;51.438;6.978;2022-09-28T00:41:38;98261.84;;;12.32;94.02
2339;BME280;1180;51.438;6.978;2022-09-28T00:46:57;98255.91;;;12.32;93.91
2339;BME280;1180;51.438;6.978;2022-09-28T00:50:21;98247.56;;;12.30;94.08
2339;BME280;1180;51.438;6.978;2022-09-28T00:52:31;98244.38;;;12.36;93.85
2339;BME280;1180;51.438;6.978;2022-09-28T00:55:01;98241.78;;;12.36;93.67
2339;BME280;1180;51.438;6.978;2022-09-28T00:57:28;98241.94;;;12.34;93.81
2339;BME280;1180;51.438;6.978;2022-09-28T00:59:54;98244.97;;;12.30;93.77
2339;BME280;1180;51.438;6.978;2022-09-28T01:02:20;98238.66;;;12.24;93.84
2339;BME280;1180;51.438;6.978;2022-09-28T01:04:46;98239.75;;;12.21;94.09
2339;BME280;1180;51.438;6.978;2022-09-28T01:07:13;98245.88;;;12.20;93.75
2339;BME280;1180;51.438;6.978;2022-09-28T01:09:39;98251.66;;;12.22;93.73
2339;BME280;1180;51.438;6.978;2022-09-28T01:12:05;98246.53;;;12.22;93.70
2339;BME280;1180;51.438;6.978;2022-09-28T01:14:31;98243.94;;;12.22;94.03
2339;BME280;1180;51.438;6.978;2022-09-28T01:17:05;98248.13;;;12.23;93.92
2339;BME280;1180;51.438;6.978;2022-09-28T01:19:54;98238.94;;;12.12;93.03
2339;BME280;1180;51.438;6.978;2022-09-28T01:22:29;98234.31;;;12.24;93.53
2339;BME280;1180;51.438;6.978;2022-09-28T01:28:06;98232.53;;;12.17;92.94
2339;BME280;1180;51.438;6.978;2022-09-28T01:30:41;98230.25;;;12.13;92.66
2339;BME280;1180;51.438;6.978;2022-09-28T01:33:12;98228.91;;;12.09;93.61
2339;BME280;1180;51.438;6.978;2022-09-28T01:38:37;98232.06;;;12.21;93.20
2339;BME280;1180;51.438;6.978;2022-09-28T01:41:06;98240.88;;;12.19;92.59
2339;BME280;1180;51.438;6.978;2022-09-28T01:43:36;98229.13;;;12.16;92.79
2339;BME280;1180;51.438;6.978;2022-09-28T01:46:12;98228.25;;;12.07;93.11
2339;BME280;1180;51.438;6.978;2022-09-28T01:49:00;98225.03;;;12.05;93.51
2339;BME280;1180;51.438;6.978;2022-09-28T01:51:40;98232.31;;;12.10;93.37
2339;BME280;1180;51.438;6.978;2022-09-28T01:54:12;98231.00;;;12.06;93.30
2339;BME280;1180;51.438;6.978;2022-09-28T01:56:45;98232.63;;;12.07;93.65
2339;BME280;1180;51.438;6.978;2022-09-28T01:59:17;98229.09;;;12.08;93.92
2339;BME280;1180;51.438;6.978;2022-09-28T02:01:51;98232.84;;;11.95;94.05
2339;BME280;1180;51.438;6.978;2022-09-28T02:04:22;98226.44;;;11.99;94.24
2339;BME280;1180;51.438;6.978;2022-09-28T02:06:53;98233.56;;;12.06;93.61
2339;BME280;1180;51.438;6.978;2022-09-28T02:09:32;98232.19;;;12.11;93.73
2339;BME280;1180;51.438;6.978;2022-09-28T02:12:06;98225.25;;;12.12;93.81
2339;BME280;1180;51.438;6.978;2022-09-28T02:14:35;98227.16;;;12.10;93.67
2339;BME280;1180;51.438;6.978;2022-09-28T02:17:02;98241.41;;;12.04;93.96
2339;BME280;1180;51.438;6.978;2022-09-28T02:19:28;98240.38;;;11.97;94.07
2339;BME280;1180;51.438;6.978;2022-09-28T02:22:20;98237.47;;;11.92;93.73
2339;BME280;1180;51.438;6.978;2022-09-28T02:24:58;98243.56;;;11.91;94.30
2339;BME280;1180;51.438;6.978;2022-09-28T02:27:33;98239.38;;;11.90;93.39
2339;BME280;1180;51.438;6.978;2022-09-28T02:30:01;98239.59;;;11.96;93.44
2339;BME280;1180;51.438;6.978;2022-09-28T02:32:29;98233.41;;;12.07;93.24
2339;BME280;1180;51.438;6.978;2022-09-28T02:34:56;98230.25;;;12.13;92.42
2339;BME280;1180;51.438;6.978;2022-09-28T02:37:22;98230.84;;;12.07;92.82
2339;BME280;1180;51.438;6.978;2022-09-28T02:39:47;98237.03;;;11.96;93.05
2339;BME280;1180;51.438;6.978;2022-09-28T02:42:22;98237.88;;;12.05;92.67
2339;BME280;1180;51.438;6.978;2022-09-28T02:45:03;98245.31;;;11.90;92.26
2339;BME280;1180;51.438;6.978;2022-09-28T02:47:50;98245.91;;;12.02;91.55
2339;BME280;1180;51.438;6.978;2022-09-28T02:53:54;98248.81;;;11.89;92.33
2339;BME280;1180;51.438;6.978;2022-09-28T02:56:51;98250.59;;;11.89;92.48
2339;BME280;1180;51.438;6.978;2022-09-28T03:02:24;98253.41;;;11.95;91.70
2339;BME280;1180;51.438;6.978;2022-09-28T03:05:21;98249.59;;;11.81;90.69
2339;BME280;1180;51.438;6.978;2022-09-28T03:08:10;98237.09;;;11.87;91.22
2339;BME280;1180;51.438;6.978;2022-09-28T03:10:48;98241.41;;;11.86;90.56
2339;BME280;1180;51.438;6.978;2022-09-28T03:13:15;98243.13;;;11.95;89.49
2339;BME280;1180;51.438;6.978;2022-09-28T03:15:41;98244.44;;;11.99;90.02
2339;BME280;1180;51.438;6.978;2022-09-28T03:18:08;98247.00;;;11.99;89.56
2339;BME280;1180;51.438;6.978;2022-09-28T03:20:34;98242.16;;;11.96;89.61
2339;BME280;1180;51.438;6.978;2022-09-28T03:22:59;98239.59;;;11.96;89.71
2339;BME280;1180;51.438;6.978;2022-09-28T03:25:25;98234.88;;;11.92;89.82
2339;BME280;1180;51.438;6.978;2022-09-28T03:27:51;98238.19;;;11.84;90.75
2339;BME280;1180;51.438;6.978;2022-09-28T03:30:16;98242.53;;;11.83;90.38
2339;BME280;1180;51.438;6.978;2022-09-28T03:32:41;98243.03;;;11.87;90.23
2339;BME280;1180;51.438;6.978;2022-09-28T03:35:08;98249.00;;;11.88;90.31
2339;BME280;1180;51.438;6.978;2022-09-28T03:37:33;98240.97;;;11.91;90.23
2339;BME280;1180;51.438;6.978;2022-09-28T03:39:59;98249.22;;;11.76;91.31
2339;BME280;1180;51.438;6.978;2022-09-28T03:42:24;98254.50;;;11.75;92.52
2339;BME280;1180;51.438;6.978;2022-09-28T03:44:50;98251.28;;;11.73;93.00
2339;BME280;1180;51.438;6.978;2022-09-28T03:47:16;98248.72;;;11.73;92.72
2339;BME280;1180;51.438;6.978;2022-09-28T03:49:42;98252.72;;;11.75;92.63
2339;BME280;1180;51.438;6.978;2022-09-28T03:52:08;98238.13;;;11.76;92.94
2339;BME280;1180;51.438;6.978;2022-09-28T03:54:33;98248.28;;;11.77;93.52
2339;BME280;1180;51.438;6.978;2022-09-28T03:56:58;98250.84;;;11.77;93.21
2339;BME280;1180;51.438;6.978;2022-09-28T03:59:24;98248.63;;;11.82;93.25
2339;BME280;1180;51.438;6.978;2022-09-28T04:01:49;98250.69;;;11.79;92.84
2339;BME280;1180;51.438;6.978;2022-09-28T04:04:15;98250.56;;;11.80;93.55
2339;BME280;1180;51.438;6.978;2022-09-28T04:06:41;98248.63;;;11.82;93.48
2339;BME280;1180;51.438;6.978;2022-09-28T04:09:06;98250.75;;;11.87;93.00
2339;BME280;1180;51.438;6.978;2022-09-28T04:11:32;98245.91;;;11.84;92.51
2339;BME280;1180;51.438;6.978;2022-09-28T04:13:58;98249.22;;;11.76;93.01
2339;BME280;1180;51.438;6.978;2022-09-28T04:16:23;98255.69;;;11.80;93.41
2339;BME280;1180;51.438;6.978;2022-09-28T04:18:54;98258.56;;;11.77;93.46
2339;BME280;1180;51.438;6.978;2022-09-28T04:21:20;98257.09;;;11.75;93.87
2339;BME280;1180;51.438;6.978;2022-09-28T04:23:50;98250.84;;;11.77;94.04
2339;BME280;1180;51.438;6.978;2022-09-28T04:26:26;98256.19;;;11.84;93.89
2339;BME280;1180;51.438;6.978;2022-09-28T04:28:53;98258.75;;;11.84;94.42
2339;BME280;1180;51.438;6.978;2022-09-28T04:34:10;98258.75;;;11.84;93.51
2339;BME280;1180;51.438;6.978;2022-09-28T04:36:47;98260.38;;;11.85;93.94
2339;BME280;1180;51.438;6.978;2022-09-28T04:39:48;98261.69;;;11.89;93.51
2339;BME280;1180;51.438;6.978;2022-09-28T04:43:17;98266.16;;;11.87;93.42
2339;BME280;1180;51.438;6.978;2022-09-28T04:45:43;98260.53;;;11.83;93.43
2339;BME280;1180;51.438;6.978;2022-09-28T04:48:14;98263.59;;;11.87;93.76
2339;BME280;1180;51.438;6.978;2022-09-28T04:51:02;98257.88;;;11.93;92.97
2339;BME280;1180;51.438;6.978;2022-09-28T04:53:41;98258.44;;;11.87;92.51
2339;BME280;1180;51.438;6.978;2022-09-28T04:56:16;98259.06;;;11.81;93.21
2339;BME280;1180;51.438;6.978;2022-09-28T04:59:07;98252.47;;;11.78;92.96
2339;BME280;1180;51.438;6.978;2022-09-28T05:02:08;98248.78;;;11.81;93.53
2339;BME280;1180;51.438;6.978;2022-09-28T05:04:55;98249.72;;;11.80;94.11
2339;BME280;1180;51.438;6.978;2022-09-28T05:07:31;98251.50;;;11.79;94.35
2339;BME280;1180;51.438;6.978;2022-09-28T05:10:00;98255.41;;;11.83;94.46
2339;BME280;1180;51.438;6.978;2022-09-28T05:12:35;98250.44;;;11.90;94.19
2339;BME280;1180;51.438;6.978;2022-09-28T05:18:53;98255.31;;;11.93;93.78
2339;BME280;1180;51.438;6.978;2022-09-28T05:21:28;98257.38;;;11.90;93.26
2339;BME280;1180;51.438;6.978;2022-09-28T05:24:02;98255.75;;;11.89;93.81
2339;BME280;1180;51.438;6.978;2022-09-28T05:27:31;98259.34;;;11.96;93.07
2339;BME280;1180;51.438;6.978;2022-09-28T05:30:37;98255.00;;;11.96;92.92
2339;BME280;1180;51.438;6.978;2022-09-28T05:33:44;98251.09;;;11.92;94.08
2339;BME280;1180;51.438;6.978;2022-09-28T05:36:14;98259.50;;;11.94;94.25
2339;BME280;1180;51.438;6.978;2022-09-28T05:38:50;98252.13;;;11.99;94.28
2339;BME280;1180;51.438;6.978;2022-09-28T05:41:53;98250.44;;;12.08;93.53
2339;BME280;1180;51.438;6.978;2022-09-28T05:44:39;98248.03;;;12.07;93.40
2339;BME280;1180;51.438;6.978;2022-09-28T05:47:18;98256.72;;;12.06;93.72
2339;BME280;1180;51.438;6.978;2022-09-28T05:50:04;98247.00;;;11.99;93.84
2339;BME280;1180;51.438;6.978;2022-09-28T05:53:16;98251.31;;;11.99;94.71
2339;BME280;1180;51.438;6.978;2022-09-28T05:55:51;98242.81;;;11.98;94.66
2339;BME280;1180;51.438;6.978;2022-09-28T05:58:18;98251.56;;;12.06;93.81
2339;BME280;1180;51.438;6.978;2022-09-28T06:01:08;98250.59;;;12.07;94.43
2339;BME280;1180;51.438;6.978;2022-09-28T06:03:47;98264.41;;;12.06;94.63
2339;BME280;1180;51.438;6.978;2022-09-28T06:06:22;98260.81;;;11.98;95.19
2339;BME280;1180;51.438;6.978;2022-09-28T06:09:03;98258.94;;;12.01;94.78
2339;BME280;1180;51.438;6.978;2022-09-28T06:11:30;98261.97;;;12.04;94.51
2339;BME280;1180;51.438;6.978;2022-09-28T06:17:26;98264.84;;;12.01;94.61
2339;BME280;1180;51.438;6.978;2022-09-28T06:20:28;98279.59;;;11.99;94.77
2339;BME280;1180;51.438;6.978;2022-09-28T06:23:16;98271.88;;;11.99;94.67
2339;BME280;1180;51.438;6.978;2022-09-28T06:26:22;98276.75;;;12.02;93.99
2339;BME280;1180;51.438;6.978;2022-09-28T06:29:43;98283.69;;;12.02;95.17
2339;BME280;1180;51.438;6.978;2022-09-28T06:32:24;98287.59;;;11.96;95.09
2339;BME280;1180;51.438;6.978;2022-09-28T06:38:08;98296.22;;;12.05;94.33
2339;BME280;1180;51.438;6.978;2022-09-28T06:41:11;98295.09;;;12.07;94.62
2339;BME280;1180;51.438;6.978;2022-09-28T06:44:36;98301.59;;;12.11;94.19
2339;BME280;1180;51.438;6.978;2022-09-28T06:47:26;98308.69;;;11.99;95.08
2339;BME280;1180;51.438;6.978;2022-09-28T06:50:24;98302.72;;;11.99;94.44
2339;BME280;1180;51.438;6.978;2022-09-28T06:53:16;98306.56;;;11.95;95.09
2339;BME280;1180;51.438;6.978;2022-09-28T06:56:20;98306.22;;;12.08;94.41
2339;BME280;1180;51.438;6.978;2022-09-28T06:59:27;98310.53;;;12.07;93.53
2339;BME280;1180;51.438;6.978;2022-09-28T07:02:23;98313.50;;;12.12;93.64
2339;BME280;1180;51.438;6.978;2022-09-28T07:05:03;98319.59;;;12.11;93.15
2339;BME280;1180;51.438;6.978;2022-09-28T07:08:06;98311.69;;;12.13;92.75
2339;BME280;1180;51.438;6.978;2022-09-28T07:10:49;98316.84;;;12.13;93.20
2339;BME280;1180;51.438;6.978;2022-09-28T07:13:27;98316.31;;;12.09;94.16
2339;BME280;1180;51.438;6.978;2022-09-28T07:16:04;98317.00;;;12.11;93.03
2339;BME280;1180;51.438;6.978;2022-09-28T07:18:35;98327.94;;;12.13;93.24
2339;BME280;1180;51.438;6.978;2022-09-28T07:21:16;98339.09;;;12.04;93.62
2339;BME280;1180;51.438;6.978;2022-09-28T07:23:55;98333.22;;;12.12;93.22
2339;BME280;1180;51.438;6.978;2022-09-28T07:26:52;98344.41;;;12.03;94.23
2339;BME280;1180;51.438;6.978;2022-09-28T07:30:04;98337.72;;;12.10;94.28
2339;BME280;1180;51.438;6.978;2022-09-28T07:33:02;98351.16;;;12.04;94.15
2339;BME280;1180;51.438;6.978;2022-09-28T07:35:58;98348.66;;;12.12;93.86
2339;BME280;1180;51.438;6.978;2022-09-28T07:38:54;98357.09;;;12.22;93.22
2339;BME280;1180;51.438;6.978;2022-09-28T07:41:45;98351.44;;;12.19;93.33
2339;BME280;1180;51.438;6.978;2022-09-28T07:45:04;98353.94;;;12.28;93.11
2339;BME280;1180;51.438;6.978;2022-09-28T07:47:58;98352.47;;;12.26;93.21
2339;BME280;1180;51.438;6.978;2022-09-28T07:50:51;98359.75;;;12.31;93.19
2339;BME280;1180;51.438;6.978;2022-09-28T07:53:41;98367.84;;;12.18;93.57
2339;BME280;1180;51.438;6.978;2022-09-28T07:56:07;98365.47;;;12.24;93.12
2339;BME280;1180;51.438;6.978;2022-09-28T07:58:35;98377.09;;;12.28;91.97
2339;BME280;1180;51.438;6.978;2022-09-28T08:01:06;98375.31;;;12.29;91.32
2339;BME280;1180;51.438;6.978;2022-09-28T08:03:33;98382.16;;;12.20;92.32
2339;BME280;1180;51.438;6.978;2022-09-28T08:06:01;98386.03;;;12.24;92.23
2339;BME280;1180;51.438;6.978;2022-09-28T08:08:27;98387.28;;;12.38;91.20
2339;BME280;1180;51.438;6.978;2022-09-28T08:10:55;98378.47;;;12.41;90.95
2339;BME280;1180;51.438;6.978;2022-09-28T08:13:21;98384.88;;;12.37;91.54
2339;BME280;1180;51.438;6.978;2022-09-28T08:15:49;98393.84;;;12.33;92.44
2339;BME280;1180;51.438;6.978;2022-09-28T08:18:15;98392.88;;;12.34;92.00
2339;BME280;1180;51.438;6.978;2022-09-28T08:20:41;98389.72;;;12.40;91.54
2339;BME280;1180;51.438;6.978;2022-09-28T08:23:25;98390.81;;;12.37;92.12
2339;BME280;1180;51.438;6.978;2022-09-28T08:25:51;98393.25;;;12.39;92.41
2339;BME280;1180;51.438;6.978;2022-09-28T08:28:19;98396.47;;;12.41;92.47
2339;BME280;1180;51.438;6.978;2022-09-28T08:30:45;98396.53;;;12.49;92.28
2339;BME280;1180;51.438;6.978;2022-09-28T08:33:15;98398.13;;;12.50;92.30
2339;BME280;1180;51.438;6.978;2022-09-28T08:35:42;98397.53;;;12.56;91.69
2339;BME280;1180;51.438;6.978;2022-09-28T08:38:09;98404.22;;;12.67;91.03
2339;BME280;1180;51.438;6.978;2022-09-28T08:40:58;98403.78;;;12.72;91.96
2339;BME280;1180;51.438;6.978;2022-09-28T08:46:12;98409.00;;;12.89;92.34
2339;BME280;1180;51.438;6.978;2022-09-28T08:49:05;98418.78;;;12.77;91.60
2339;BME280;1180;51.438;6.978;2022-09-28T08:51:34;98415.31;;;12.68;90.44
2339;BME280;1180;51.438;6.978;2022-09-28T08:54:20;98412.19;;;12.82;90.90
2339;BME280;1180;51.438;6.978;2022-09-28T08:56:53;98426.78;;;13.00;89.68
2339;BME280;1180;51.438;6.978;2022-09-28T08:59:22;98423.91;;;13.03;89.29
2339;BME280;1180;51.438;6.978;2022-09-28T09:01:54;98426.56;;;13.20;89.16
2339;BME280;1180;51.438;6.978;2022-09-28T09:04:20;98433.97;;;13.23;89.07
2339;BME280;1180;51.438;6.978;2022-09-28T09:12:37;98438.97;;;13.16;86.99
2339;BME280;1180;51.438;6.978;2022-09-28T09:21:04;98440.56;;;13.43;84.35
2339;BME280;1180;51.438;6.978;2022-09-28T09:23:37;98438.00;;;13.43;85.81
2339;BME280;1180;51.438;6.978;2022-09-28T09:26:19;98444.00;;;13.52;85.66
2339;BME280;1180;51.438;6.978;2022-09-28T09:29:00;98447.03;;;13.48;86.74
2339;BME280;1180;51.438;6.978;2022-09-28T09:40:38;98446.19;;;13.90;84.37
2339;BME280;1180;51.438;6.978;2022-09-28T09:46:28;98451.22;;;14.08;84.34
2339;BME280;1180;51.438;6.978;2022-09-28T09:49:12;98448.19;;;14.21;83.23
2339;BME280;1180;51.438;6.978;2022-09-28T09:51:44;98449.19;;;14.28;81.96
2339;BME280;1180;51.438;6.978;2022-09-28T09:54:22;98451.47;;;14.32;82.34
2339;BME280;1180;51.438;6.978;2022-09-28T09:59:30;98455.31;;;14.27;83.13
2339;BME280;1180;51.438;6.978;2022-09-28T10:02:11;98457.59;;;14.30;83.05
2339;BME280;1180;51.438;6.978;2022-09-28T10:04:44;98457.06;;;14.10;80.56
2339;BME280;1180;51.438;6.978;2022-09-28T10:07:18;98454.13;;;14.05;81.51
2339;BME280;1180;51.438;6.978;2022-09-28T10:09:47;98466.88;;;14.07;81.60
2339;BME280;1180;51.438;6.978;2022-09-28T10:12:17;98457.66;;;13.96;81.64
2339;BME280;1180;51.438;6.978;2022-09-28T10:14:43;98456.56;;;13.98;80.45
2339;BME280;1180;51.438;6.978;2022-09-28T10:17:13;98455.28;;;14.03;81.56
2339;BME280;1180;51.438;6.978;2022-09-28T10:19:41;98456.50;;;13.90;80.81
2339;BME280;1180;51.438;6.978;2022-09-28T10:22:16;98457.88;;;14.11;82.07
2339;BME280;1180;51.438;6.978;2022-09-28T10:24:46;98458.84;;;14.10;82.63
2339;BME280;1180;51.438;6.978;2022-09-28T10:27:17;98456.75;;;14.22;80.74
2339;BME280;1180;51.438;6.978;2022-09-28T10:32:42;98468.06;;;14.29;81.45
2339;BME280;1180;51.438;6.978;2022-09-28T10:38:05;98463.72;;;14.38;80.27
2339;BME280;1180;51.438;6.978;2022-09-28T10:43:32;98473.25;;;14.46;80.01
2339;BME280;1180;51.438;6.978;2022-09-28T10:48:25;98477.09;;;14.33;78.62
2339;BME280;1180;51.438;6.978;2022-09-28T10:51:06;98476.75;;;14.28;79.46
2339;BME280;1180;51.438;6.978;2022-09-28T10:53:33;98464.38;;;14.40;78.80
2339;BME280;1180;51.438;6.978;2022-09-28T10:56:04;98464.41;;;14.73;77.71
2339;BME280;1180;51.438;6.978;2022-09-28T10:58:39;98466.66;;;14.93;75.99
2339;BME280;1180;51.438;6.978;2022-09-28T11:01:25;98465.66;;;15.02;75.59
2339;BME280;1180;51.438;6.978;2022-09-28T11:04:03;98466.47;;;15.11;76.18
2339;BME280;1180;51.438;6.978;2022-09-28T11:06:38;98467.25;;;15.11;73.89
2339;BME280;1180;51.438;6.978;2022-09-28T11:09:28;98467.63;;;15.00;74.11
2339;BME280;1180;51.438;6.978;2022-09-28T11:11:56;98474.56;;;14.91;74.48
2339;BME280;1180;51.438;6.978;2022-09-28T11:14:33;98467.09;;;15.05;75.06
2339;BME280;1180;51.438;6.978;2022-09-28T11:17:31;98467.56;;;15.16;75.69
2339;BME280;1180;51.438;6.978;2022-09-28T11:20:00;98466.59;;;15.18;75.21
2339;BME280;1180;51.438;6.978;2022-09-28T11:25:18;98466.91;;;15.23;78.29
2339;BME280;1180;51.438;6.978;2022-09-28T11:33:26;98470.47;;;15.22;79.20
2339;BME280;1180;51.438;6.978;2022-09-28T11:38:53;98474.31;;;15.34;78.38
2339;BME280;1180;51.438;6.978;2022-09-28T11:55:39;98474.22;;;15.11;79.29
2339;BME280;1180;51.438;6.978;2022-09-28T11:58:16;98475.84;;;15.12;79.83
2339;BME280;1180;51.438;6.978;2022-09-28T12:00:53;98476.94;;;15.09;81.59
2339;BME280;1180;51.438;6.978;2022-09-28T12:03:25;98475.50;;;15.07;81.41
2339;BME280;1180;51.438;6.978;2022-09-28T12:05:59;98473.72;;;15.07;81.52
2339;BME280;1180;51.438;6.978;2022-09-28T12:08:32;98474.03;;;15.12;83.05
2339;BME280;1180;51.438;6.978;2022-09-28T12:11:04;98475.97;;;15.19;83.99
2339;BME280;1180;51.438;6.978;2022-09-28T12:13:37;98475.47;;;15.23;83.88
2339;BME280;1180;51.438;6.978;2022-09-28T12:16:07;98474.81;;;15.29;84.23
2339;BME280;1180;51.438;6.978;2022-09-28T12:23:49;98471.19;;;15.55;82.68
2339;BME280;1180;51.438;6.978;2022-09-28T12:26:27;98470.34;;;15.63;82.81
2339;BME280;1180;51.438;6.978;2022-09-28T12:29:00;98462.72;;;15.70;81.95
2339;BME280;1180;51.438;6.978;2022-09-28T12:34:08;98465.44;;;15.77;82.62
2339;BME280;1180;51.438;6.978;2022-09-28T12:55:45;98464.13;;;15.81;77.59
2339;BME280;1180;51.438;6.978;2022-09-28T13:03:53;98465.09;;;15.88;73.23
2339;BME280;1180;51.438;6.978;2022-09-28T13:09:15;98472.34;;;15.44;75.82
2339;BME280;1180;51.438;6.978;2022-09-28T13:12:10;98467.38;;;15.43;79.15
2339;BME280;1180;51.438;6.978;2022-09-28T13:15:16;98461.38;;;15.42;81.81
2339;BME280;1180;51.438;6.978;2022-09-28T13:21:25;98453.06;;;15.64;86.69
2339;BME280;1180;51.438;6.978;2022-09-28T13:23:51;98458.78;;;15.91;86.22
2339;BME280;1180;51.438;6.978;2022-09-28T13:28:49;98449.56;;;16.43;84.14
2339;BME280;1180;51.438;6.978;2022-09-28T13:31:22;98446.31;;;16.64;81.95
2339;BME280;1180;51.438;6.978;2022-09-28T13:33:54;98453.41;;;16.85;81.06
2339;BME280;1180;51.438;6.978;2022-09-28T13:38:56;98449.53;;;17.20;79.67
2339;BME280;1180;51.438;6.978;2022-09-28T13:41:46;98446.25;;;17.11;79.46
2339;BME280;1180;51.438;6.978;2022-09-28T13:44:17;98445.22;;;16.97;80.29
2339;BME280;1180;51.438;6.978;2022-09-28T13:57:20;98457.09;;;16.53;82.99
2339;BME280;1180;51.438;6.978;2022-09-28T14:08:43;98458.16;;;16.12;84.91
2339;BME280;1180;51.438;6.978;2022-09-28T14:16:29;98477.50;;;15.93;83.82
2339;BME280;1180;51.438;6.978;2022-09-28T14:19:23;98481.25;;;15.82;83.46
2339;BME280;1180;51.438;6.978;2022-09-28T14:22:22;98472.53;;;15.83;83.88
2339;BME280;1180;51.438;6.978;2022-09-28T14:25:18;98477.06;;;15.81;84.39
2339;BME280;1180;51.438;6.978;2022-09-28T14:30:56;98480.16;;;15.76;83.43
2339;BME280;1180;51.438;6.978;2022-09-28T14:33:29;98476.91;;;15.74;83.65
2339;BME280;1180;51.438;6.978;2022-09-28T14:36:04;98484.22;;;15.70;84.63
2339;BME280;1180;51.438;6.978;2022-09-28T14:38:46;98473.06;;;15.70;84.29
2339;BME280;1180;51.438;6.978;2022-09-28T14:41:37;98469.34;;;15.72;85.51
2339;BME280;1180;51.438;6.978;2022-09-28T14:44:11;98475.47;;;15.71;83.89
2339;BME280;1180;51.438;6.978;2022-09-28T14:46:46;98480.34;;;15.66;85.48
2339;BME280;1180;51.438;6.978;2022-09-28T14:53:04;98469.44;;;15.48;87.69
2339;BME280;1180;51.438;6.978;2022-09-28T14:55:44;98472.66;;;15.50;88.63
2339;BME280;1180;51.438;6.978;2022-09-28T14:58:39;98481.22;;;15.50;89.19
2339;BME280;1180;51.438;6.978;2022-09-28T15:01:37;98478.16;;;15.47;90.39
2339;BME280;1180;51.438;6.978;2022-09-28T15:04:10;98484.97;;;15.39;90.50
2339;BME280;1180;51.438;6.978;2022-09-28T15:06:48;98483.16;;;15.40;90.98
2339;BME280;1180;51.438;6.978;2022-09-28T15:09:46;98499.34;;;15.34;89.74
2339;BME280;1180;51.438;6.978;2022-09-28T15:12:41;98488.41;;;15.23;90.32
2339;BME280;1180;51.438;6.978;2022-09-28T15:15:29;98496.94;;;15.24;91.38
2339;BME280;1180;51.438;6.978;2022-09-28T15:18:41;98493.91;;;15.20;91.35
2339;BME280;1180;51.438;6.978;2022-09-28T15:21:59;98510.19;;;15.21;89.69
2339;BME280;1180;51.438;6.978;2022-09-28T15:24:57;98505.69;;;15.14;88.52
2339;BME280;1180;51.438;6.978;2022-09-28T15:27:49;98510.69;;;15.08;87.65
2339;BME280;1180;51.438;6.978;2022-09-28T15:30:34;98510.69;;;15.08;87.09
2339;BME280;1180;51.438;6.978;2022-09-28T15:33:49;98507.47;;;14.97;84.82
2339;BME280;1180;51.438;6.978;2022-09-28T15:36:55;98508.28;;;14.90;84.66
2339;BME280;1180;51.438;6.978;2022-09-28T15:40:07;98510.06;;;14.97;84.05
2339;BME280;1180;51.438;6.978;2022-09-28T15:42:56;98516.03;;;14.98;82.42
2339;BME280;1180;51.438;6.978;2022-09-28T15:45:44;98522.16;;;14.88;81.97
2339;BME280;1180;51.438;6.978;2022-09-28T15:48:55;98522.81;;;14.82;82.36
2339;BME280;1180;51.438;6.978;2022-09-28T15:52:06;98513.44;;;14.73;82.26
2339;BME280;1180;51.438;6.978;2022-09-28T15:55:27;98519.22;;;14.67;82.69
2339;BME280;1180;51.438;6.978;2022-09-28T15:58:29;98520.66;;;14.69;83.29
2339;BME280;1180;51.438;6.978;2022-09-28T16:01:24;98516.81;;;14.65;83.64
2339;BME280;1180;51.438;6.978;2022-09-28T16:03:50;98517.00;;;14.72;83.80
2339;BME280;1180;51.438;6.978;2022-09-28T16:06:16;98518.63;;;14.73;83.57
2339;BME280;1180;51.438;6.978;2022-09-28T16:08:43;98527.34;;;14.72;84.40
2339;BME280;1180;51.438;6.978;2022-09-28T16:13:52;98528.75;;;14.66;86.03
2339;BME280;1180;51.438;6.978;2022-09-28T16:16:24;98535.03;;;14.64;85.06
2339;BME280;1180;51.438;6.978;2022-09-28T16:18:50;98550.50;;;14.55;84.71
2339;BME280;1180;51.438;6.978;2022-09-28T16:21:31;98551.78;;;14.51;84.71
2339;BME280;1180;51.438;6.978;2022-09-28T16:23:59;98558.09;;;14.49;85.18
2339;BME280;1180;51.438;6.978;2022-09-28T16:26:32;98565.66;;;14.42;83.42
2339;BME280;1180;51.438;6.978;2022-09-28T16:28:59;98559.50;;;14.26;83.38
2339;BME280;1180;51.438;6.978;2022-09-28T16:31:30;98558.66;;;14.18;83.02
2339;BME280;1180;51.438;6.978;2022-09-28T16:34:07;98569.09;;;14.16;83.00
2339;BME280;1180;51.438;6.978;2022-09-28T16:36:42;98577.63;;;14.08;83.39
2339;BME280;1180;51.438;6.978;2022-09-28T16:39:09;98571.22;;;14.12;84.21
2339;BME280;1180;51.438;6.978;2022-09-28T16:41:36;98568.34;;;14.24;83.41
2339;BME280;1180;51.438;6.978;2022-09-28T16:44:04;98566.88;;;14.21;83.04
2339;BME280;1180;51.438;6.978;2022-09-28T16:46:36;98571.38;;;14.19;82.85
2339;BME280;1180;51.438;6.978;2022-09-28T16:49:04;98578.78;;;14.14;83.40
2339;BME280;1180;51.438;6.978;2022-09-28T16:51:31;98578.44;;;14.09;83.93
2339;BME280;1180;51.438;6.978;2022-09-28T16:54:05;98579.25;;;14.09;83.85
2339;BME280;1180;51.438;6.978;2022-09-28T16:56:54;98580.69;;;14.04;84.61
2339;BME280;1180;51.438;6.978;2022-09-28T16:59:19;98583.38;;;13.94;84.63
2339;BME280;1180;51.438;6.978;2022-09-28T17:01:46;98588.38;;;13.95;83.84
2339;BME280;1180;51.438;6.978;2022-09-28T17:04:12;98588.88;;;13.99;83.95
2339;BME280;1180;51.438;6.978;2022-09-28T17:06:37;98598.31;;;13.90;85.39
2339;BME280;1180;51.438;6.978;2022-09-28T17:09:03;98595.28;;;13.95;85.25
2339;BME280;1180;51.438;6.978;2022-09-28T17:11:31;98606.75;;;13.92;84.34
2339;BME280;1180;51.438;6.978;2022-09-28T17:13:56;98610.03;;;13.76;84.30